sensor_id;sensor_type;location;lat;lon;timestamp;P1;durP1;ratioP1;P2;durP2;ratioP2
22557;SDS011;11445;53.816;8.902;2024-02-14T00:00:03;10.65;;;6.07;;
22557;SDS011;11445;53.816;8.902;2024-02-14T00:02:31;12.50;;;6.40;;
22557;SDS011;11445;53.816;8.902;2024-02-14T00:04:58;12.57;;;6.25;;
22557;SDS011;11445;53.816;8.902;2024-02-14T00:07:25;14.77;;;6.28;;
22557;SDS011;11445;53.816;8.902;2024-02-14T00:09:52;12.85;;;6.43;;
22557;SDS011;11445;53.816;8.902;2024-02-14T00:12:19;12.80;;;6.80;;
22557;SDS011;11445;53.816;8.902;2024-02-14T00:14:46;11.35;;;6.88;;
22557;SDS011;11445;53.816;8.902;2024-02-14T00:17:15;14.15;;;6.82;;
22557;SDS011;11445;53.816;8.902;2024-02-14T00:19:41;19.80;;;6.85;;
22557;SDS011;11445;53.816;8.902;2024-02-14T00:22:08;15.85;;;7.05;;
22557;SDS011;11445;53.816;8.902;2024-02-14T00:24:35;16.50;;;8.23;;
22557;SDS011;11445;53.816;8.902;2024-02-14T00:27:02;18.20;;;6.70;;
22557;SDS011;11445;53.816;8.902;2024-02-14T00:29:29;15.25;;;7.10;;
22557;SDS011;11445;53.816;8.902;2024-02-14T00:31:59;11.10;;;6.80;;
22557;SDS011;11445;53.816;8.902;2024-02-14T00:34:27;11.60;;;6.78;;
22557;SDS011;11445;53.816;8.902;2024-02-14T00:36:54;15.85;;;6.70;;
22557;SDS011;11445;53.816;8.902;2024-02-14T00:39:20;12.40;;;6.60;;
22557;SDS011;11445;53.816;8.902;2024-02-14T00:41:47;11.52;;;7.07;;
22557;SDS011;11445;53.816;8.902;2024-02-14T00:44:15;14.32;;;7.68;;
22557;SDS011;11445;53.816;8.902;2024-02-14T00:46:43;12.68;;;6.53;;
22557;SDS011;11445;53.816;8.902;2024-02-14T00:49:10;13.57;;;6.60;;
22557;SDS011;11445;53.816;8.902;2024-02-14T00:51:39;11.82;;;7.00;;
22557;SDS011;11445;53.816;8.902;2024-02-14T00:54:06;15.02;;;7.18;;
22557;SDS011;11445;53.816;8.902;2024-02-14T00:56:33;14.25;;;6.80;;
22557;SDS011;11445;53.816;8.902;2024-02-14T00:59:01;14.43;;;7.63;;
22557;SDS011;11445;53.816;8.902;2024-02-14T01:01:27;13.52;;;6.75;;
22557;SDS011;11445;53.816;8.902;2024-02-14T01:03:54;17.20;;;7.30;;
22557;SDS011;11445;53.816;8.902;2024-02-14T01:06:21;13.90;;;7.40;;
22557;SDS011;11445;53.816;8.902;2024-02-14T01:08:50;15.30;;;7.28;;
22557;SDS011;11445;53.816;8.902;2024-02-14T01:11:17;10.80;;;6.85;;
22557;SDS011;11445;53.816;8.902;2024-02-14T01:13:44;17.17;;;7.43;;
22557;SDS011;11445;53.816;8.902;2024-02-14T01:16:10;17.58;;;8.30;;
22557;SDS011;11445;53.816;8.902;2024-02-14T01:18:37;15.65;;;7.15;;
22557;SDS011;11445;53.816;8.902;2024-02-14T01:21:04;11.27;;;7.45;;
22557;SDS011;11445;53.816;8.902;2024-02-14T01:23:32;17.20;;;7.55;;
22557;SDS011;11445;53.816;8.902;2024-02-14T01:26:00;10.80;;;7.43;;
22557;SDS011;11445;53.816;8.902;2024-02-14T01:28:27;13.23;;;8.10;;
22557;SDS011;11445;53.816;8.902;2024-02-14T01:30:54;15.10;;;7.43;;
22557;SDS011;11445;53.816;8.902;2024-02-14T01:33:22;13.38;;;7.55;;
22557;SDS011;11445;53.816;8.902;2024-02-14T01:35:48;15.93;;;7.78;;
22557;SDS011;11445;53.816;8.902;2024-02-14T01:38:15;13.63;;;8.15;;
22557;SDS011;11445;53.816;8.902;2024-02-14T01:40:42;20.35;;;8.27;;
22557;SDS011;11445;53.816;8.902;2024-02-14T01:43:11;16.52;;;8.32;;
22557;SDS011;11445;53.816;8.902;2024-02-14T01:45:39;11.15;;;8.23;;
22557;SDS011;11445;53.816;8.902;2024-02-14T01:48:06;12.65;;;8.60;;
22557;SDS011;11445;53.816;8.902;2024-02-14T01:50:34;13.50;;;8.65;;
22557;SDS011;11445;53.816;8.902;2024-02-14T01:53:02;14.68;;;8.65;;
22557;SDS011;11445;53.816;8.902;2024-02-14T01:55:30;15.00;;;9.02;;
22557;SDS011;11445;53.816;8.902;2024-02-14T01:57:57;19.55;;;8.93;;
22557;SDS011;11445;53.816;8.902;2024-02-14T02:00:26;14.52;;;8.95;;
22557;SDS011;11445;53.816;8.902;2024-02-14T02:02:53;14.52;;;9.20;;
22557;SDS011;11445;53.816;8.902;2024-02-14T02:05:20;15.57;;;9.98;;
22557;SDS011;11445;53.816;8.902;2024-02-14T02:07:47;16.45;;;9.75;;
22557;SDS011;11445;53.816;8.902;2024-02-14T02:10:14;22.55;;;11.18;;
22557;SDS011;11445;53.816;8.902;2024-02-14T02:12:41;18.83;;;10.80;;
22557;SDS011;11445;53.816;8.902;2024-02-14T02:15:08;14.80;;;10.00;;
22557;SDS011;11445;53.816;8.902;2024-02-14T02:17:39;16.95;;;11.23;;
22557;SDS011;11445;53.816;8.902;2024-02-14T02:20:06;24.30;;;11.23;;
22557;SDS011;11445;53.816;8.902;2024-02-14T02:22:34;18.83;;;12.00;;
22557;SDS011;11445;53.816;8.902;2024-02-14T02:25:02;20.77;;;11.32;;
22557;SDS011;11445;53.816;8.902;2024-02-14T02:27:32;22.98;;;11.82;;
22557;SDS011;11445;53.816;8.902;2024-02-14T02:30:00;20.08;;;11.82;;
22557;SDS011;11445;53.816;8.902;2024-02-14T02:32:29;21.17;;;12.38;;
22557;SDS011;11445;53.816;8.902;2024-02-14T02:34:56;19.13;;;11.77;;
22557;SDS011;11445;53.816;8.902;2024-02-14T02:37:23;23.05;;;12.63;;
22557;SDS011;11445;53.816;8.902;2024-02-14T02:39:50;22.00;;;12.18;;
22557;SDS011;11445;53.816;8.902;2024-02-14T02:42:18;21.08;;;12.35;;
22557;SDS011;11445;53.816;8.902;2024-02-14T02:44:46;17.88;;;12.10;;
22557;SDS011;11445;53.816;8.902;2024-02-14T02:47:13;22.02;;;12.88;;
22557;SDS011;11445;53.816;8.902;2024-02-14T02:49:41;20.38;;;12.85;;
22557;SDS011;11445;53.816;8.902;2024-02-14T02:52:09;20.70;;;13.57;;
22557;SDS011;11445;53.816;8.902;2024-02-14T02:54:36;23.77;;;13.68;;
22557;SDS011;11445;53.816;8.902;2024-02-14T02:57:04;21.25;;;12.55;;
22557;SDS011;11445;53.816;8.902;2024-02-14T02:59:32;23.45;;;12.65;;
22557;SDS011;11445;53.816;8.902;2024-02-14T03:02:00;23.15;;;12.98;;
22557;SDS011;11445;53.816;8.902;2024-02-14T03:04:27;17.95;;;12.48;;
22557;SDS011;11445;53.816;8.902;2024-02-14T03:06:54;18.13;;;12.02;;
22557;SDS011;11445;53.816;8.902;2024-02-14T03:09:21;22.67;;;12.45;;
22557;SDS011;11445;53.816;8.902;2024-02-14T03:11:48;23.20;;;12.57;;
22557;SDS011;11445;53.816;8.902;2024-02-14T03:14:15;17.50;;;12.20;;
22557;SDS011;11445;53.816;8.902;2024-02-14T03:16:43;20.52;;;12.23;;
22557;SDS011;11445;53.816;8.902;2024-02-14T03:19:10;19.50;;;12.60;;
22557;SDS011;11445;53.816;8.902;2024-02-14T03:21:37;22.05;;;12.45;;
22557;SDS011;11445;53.816;8.902;2024-02-14T03:24:04;20.60;;;12.88;;
22557;SDS011;11445;53.816;8.902;2024-02-14T03:26:34;21.60;;;12.90;;
22557;SDS011;11445;53.816;8.902;2024-02-14T03:29:02;19.98;;;13.60;;
22557;SDS011;11445;53.816;8.902;2024-02-14T03:31:31;25.65;;;13.40;;
22557;SDS011;11445;53.816;8.902;2024-02-14T03:33:59;21.05;;;12.02;;
22557;SDS011;11445;53.816;8.902;2024-02-14T03:36:26;24.08;;;12.98;;
22557;SDS011;11445;53.816;8.902;2024-02-14T03:38:55;21.52;;;13.38;;
22557;SDS011;11445;53.816;8.902;2024-02-14T03:41:23;23.75;;;13.82;;
22557;SDS011;11445;53.816;8.902;2024-02-14T03:43:49;23.05;;;13.35;;
22557;SDS011;11445;53.816;8.902;2024-02-14T03:46:19;20.52;;;12.98;;
22557;SDS011;11445;53.816;8.902;2024-02-14T03:48:46;20.85;;;12.60;;
22557;SDS011;11445;53.816;8.902;2024-02-14T03:51:15;22.77;;;12.73;;
22557;SDS011;11445;53.816;8.902;2024-02-14T03:53:42;22.33;;;12.75;;
22557;SDS011;11445;53.816;8.902;2024-02-14T03:56:09;20.38;;;12.73;;
22557;SDS011;11445;53.816;8.902;2024-02-14T03:58:37;25.65;;;13.13;;
22557;SDS011;11445;53.816;8.902;2024-02-14T04:01:04;26.92;;;14.00;;
22557;SDS011;11445;53.816;8.902;2024-02-14T04:03:31;22.20;;;13.68;;
22557;SDS011;11445;53.816;8.902;2024-02-14T04:05:58;23.80;;;13.10;;
22557;SDS011;11445;53.816;8.902;2024-02-14T04:08:27;26.63;;;13.38;;
22557;SDS011;11445;53.816;8.902;2024-02-14T04:10:54;22.02;;;13.32;;
22557;SDS011;11445;53.816;8.902;2024-02-14T04:13:21;26.35;;;14.18;;
22557;SDS011;11445;53.816;8.902;2024-02-14T04:15:48;22.35;;;13.10;;
22557;SDS011;11445;53.816;8.902;2024-02-14T04:18:15;21.70;;;12.52;;
22557;SDS011;11445;53.816;8.902;2024-02-14T04:20:43;24.63;;;13.05;;
22557;SDS011;11445;53.816;8.902;2024-02-14T04:23:10;22.00;;;13.40;;
22557;SDS011;11445;53.816;8.902;2024-02-14T04:25:38;21.88;;;12.80;;
22557;SDS011;11445;53.816;8.902;2024-02-14T04:28:05;22.48;;;12.93;;
22557;SDS011;11445;53.816;8.902;2024-02-14T04:30:32;21.63;;;13.32;;
22557;SDS011;11445;53.816;8.902;2024-02-14T04:33:01;20.92;;;12.63;;
22557;SDS011;11445;53.816;8.902;2024-02-14T04:35:29;25.40;;;12.77;;
22557;SDS011;11445;53.816;8.902;2024-02-14T04:37:56;23.23;;;12.88;;
22557;SDS011;11445;53.816;8.902;2024-02-14T04:40:23;21.30;;;13.10;;
22557;SDS011;11445;53.816;8.902;2024-02-14T04:42:51;22.67;;;13.00;;
22557;SDS011;11445;53.816;8.902;2024-02-14T04:45:18;20.20;;;12.82;;
22557;SDS011;11445;53.816;8.902;2024-02-14T04:47:45;21.23;;;13.02;;
22557;SDS011;11445;53.816;8.902;2024-02-14T04:50:12;19.45;;;12.95;;
22557;SDS011;11445;53.816;8.902;2024-02-14T04:52:39;23.48;;;13.30;;
22557;SDS011;11445;53.816;8.902;2024-02-14T04:55:06;20.90;;;12.23;;
22557;SDS011;11445;53.816;8.902;2024-02-14T04:57:34;20.88;;;11.95;;
22557;SDS011;11445;53.816;8.902;2024-02-14T05:00:04;20.88;;;12.00;;
22557;SDS011;11445;53.816;8.902;2024-02-14T05:02:32;19.52;;;11.98;;
22557;SDS011;11445;53.816;8.902;2024-02-14T05:04:59;21.17;;;11.98;;
22557;SDS011;11445;53.816;8.902;2024-02-14T05:07:28;20.15;;;12.48;;
22557;SDS011;11445;53.816;8.902;2024-02-14T05:09:54;18.90;;;11.30;;
22557;SDS011;11445;53.816;8.902;2024-02-14T05:12:21;21.02;;;11.73;;
22557;SDS011;11445;53.816;8.902;2024-02-14T05:14:48;19.23;;;12.27;;
22557;SDS011;11445;53.816;8.902;2024-02-14T05:17:16;18.27;;;11.50;;
22557;SDS011;11445;53.816;8.902;2024-02-14T05:19:43;18.75;;;11.57;;
22557;SDS011;11445;53.816;8.902;2024-02-14T05:22:10;16.63;;;10.70;;
22557;SDS011;11445;53.816;8.902;2024-02-14T05:24:37;19.60;;;10.85;;
22557;SDS011;11445;53.816;8.902;2024-02-14T05:27:04;18.85;;;10.90;;
22557;SDS011;11445;53.816;8.902;2024-02-14T05:29:31;14.35;;;10.52;;
22557;SDS011;11445;53.816;8.902;2024-02-14T05:31:58;14.70;;;10.45;;
22557;SDS011;11445;53.816;8.902;2024-02-14T05:34:26;15.45;;;10.02;;
22557;SDS011;11445;53.816;8.902;2024-02-14T05:36:53;13.55;;;9.73;;
22557;SDS011;11445;53.816;8.902;2024-02-14T05:39:20;15.80;;;10.15;;
22557;SDS011;11445;53.816;8.902;2024-02-14T05:41:47;16.33;;;10.02;;
22557;SDS011;11445;53.816;8.902;2024-02-14T05:44:15;16.50;;;10.55;;
22557;SDS011;11445;53.816;8.902;2024-02-14T05:46:41;18.60;;;11.25;;
22557;SDS011;11445;53.816;8.902;2024-02-14T05:49:08;14.82;;;10.02;;
22557;SDS011;11445;53.816;8.902;2024-02-14T05:51:36;15.18;;;9.75;;
22557;SDS011;11445;53.816;8.902;2024-02-14T05:54:03;15.75;;;10.45;;
22557;SDS011;11445;53.816;8.902;2024-02-14T05:56:30;18.17;;;10.57;;
22557;SDS011;11445;53.816;8.902;2024-02-14T05:58:57;15.57;;;10.38;;
22557;SDS011;11445;53.816;8.902;2024-02-14T06:01:24;15.30;;;9.32;;
22557;SDS011;11445;53.816;8.902;2024-02-14T06:03:51;15.80;;;10.68;;
22557;SDS011;11445;53.816;8.902;2024-02-14T06:09:39;13.50;;;10.05;;
22557;SDS011;11445;53.816;8.902;2024-02-14T06:12:06;16.42;;;9.88;;
22557;SDS011;11445;53.816;8.902;2024-02-14T06:14:33;17.27;;;10.77;;
22557;SDS011;11445;53.816;8.902;2024-02-14T06:17:00;14.27;;;9.95;;
22557;SDS011;11445;53.816;8.902;2024-02-14T06:19:27;14.50;;;10.30;;
22557;SDS011;11445;53.816;8.902;2024-02-14T06:21:54;14.90;;;10.52;;
22557;SDS011;11445;53.816;8.902;2024-02-14T06:24:21;16.38;;;11.25;;
22557;SDS011;11445;53.816;8.902;2024-02-14T06:26:49;15.10;;;10.55;;
22557;SDS011;11445;53.816;8.902;2024-02-14T06:29:15;15.93;;;11.05;;
22557;SDS011;11445;53.816;8.902;2024-02-14T06:31:42;16.25;;;11.50;;
22557;SDS011;11445;53.816;8.902;2024-02-14T06:34:09;17.00;;;11.25;;
22557;SDS011;11445;53.816;8.902;2024-02-14T06:36:36;20.23;;;10.77;;
22557;SDS011;11445;53.816;8.902;2024-02-14T06:39:03;18.40;;;12.38;;
22557;SDS011;11445;53.816;8.902;2024-02-14T06:41:32;20.08;;;13.05;;
22557;SDS011;11445;53.816;8.902;2024-02-14T06:44:00;16.80;;;11.48;;
22557;SDS011;11445;53.816;8.902;2024-02-14T06:46:27;18.85;;;11.38;;
22557;SDS011;11445;53.816;8.902;2024-02-14T06:48:54;17.48;;;11.63;;
22557;SDS011;11445;53.816;8.902;2024-02-14T06:51:21;20.23;;;11.77;;
22557;SDS011;11445;53.816;8.902;2024-02-14T06:53:48;19.48;;;11.82;;
22557;SDS011;11445;53.816;8.902;2024-02-14T06:56:15;16.02;;;10.95;;
22557;SDS011;11445;53.816;8.902;2024-02-14T06:58:42;18.38;;;10.57;;
22557;SDS011;11445;53.816;8.902;2024-02-14T07:01:10;17.63;;;11.35;;
22557;SDS011;11445;53.816;8.902;2024-02-14T07:03:40;17.40;;;12.15;;
22557;SDS011;11445;53.816;8.902;2024-02-14T07:06:07;17.70;;;11.02;;
22557;SDS011;11445;53.816;8.902;2024-02-14T07:08:33;18.55;;;12.18;;
22557;SDS011;11445;53.816;8.902;2024-02-14T07:11:00;14.60;;;11.15;;
22557;SDS011;11445;53.816;8.902;2024-02-14T07:13:27;18.02;;;10.93;;
22557;SDS011;11445;53.816;8.902;2024-02-14T07:15:54;17.30;;;11.50;;
22557;SDS011;11445;53.816;8.902;2024-02-14T07:18:22;16.73;;;11.48;;
22557;SDS011;11445;53.816;8.902;2024-02-14T07:20:49;17.95;;;11.07;;
22557;SDS011;11445;53.816;8.902;2024-02-14T07:23:16;18.02;;;11.30;;
22557;SDS011;11445;53.816;8.902;2024-02-14T07:25:44;17.92;;;11.00;;
22557;SDS011;11445;53.816;8.902;2024-02-14T07:28:11;16.30;;;11.45;;
22557;SDS011;11445;53.816;8.902;2024-02-14T07:30:38;17.45;;;11.50;;
22557;SDS011;11445;53.816;8.902;2024-02-14T07:33:04;16.10;;;11.30;;
22557;SDS011;11445;53.816;8.902;2024-02-14T07:35:34;17.98;;;11.85;;
22557;SDS011;11445;53.816;8.902;2024-02-14T07:38:01;18.38;;;11.75;;
22557;SDS011;11445;53.816;8.902;2024-02-14T07:40:27;16.42;;;11.00;;
22557;SDS011;11445;53.816;8.902;2024-02-14T07:42:56;17.90;;;10.82;;
22557;SDS011;11445;53.816;8.902;2024-02-14T07:45:23;16.23;;;11.10;;
22557;SDS011;11445;53.816;8.902;2024-02-14T07:47:49;17.73;;;11.38;;
22557;SDS011;11445;53.816;8.902;2024-02-14T07:50:16;15.60;;;10.75;;
22557;SDS011;11445;53.816;8.902;2024-02-14T07:52:44;16.50;;;11.77;;
22557;SDS011;11445;53.816;8.902;2024-02-14T07:55:13;16.83;;;11.18;;
22557;SDS011;11445;53.816;8.902;2024-02-14T07:57:40;18.63;;;11.63;;
22557;SDS011;11445;53.816;8.902;2024-02-14T08:00:08;17.33;;;11.18;;
22557;SDS011;11445;53.816;8.902;2024-02-14T08:02:36;16.42;;;11.52;;
22557;SDS011;11445;53.816;8.902;2024-02-14T08:05:03;17.65;;;11.82;;
22557;SDS011;11445;53.816;8.902;2024-02-14T08:07:31;15.32;;;10.73;;
22557;SDS011;11445;53.816;8.902;2024-02-14T08:09:59;19.45;;;11.57;;
22557;SDS011;11445;53.816;8.902;2024-02-14T08:12:25;20.58;;;10.85;;
22557;SDS011;11445;53.816;8.902;2024-02-14T08:14:52;16.42;;;11.07;;
22557;SDS011;11445;53.816;8.902;2024-02-14T08:17:19;18.08;;;12.10;;
22557;SDS011;11445;53.816;8.902;2024-02-14T08:19:46;17.92;;;11.73;;
22557;SDS011;11445;53.816;8.902;2024-02-14T08:22:13;18.67;;;11.80;;
22557;SDS011;11445;53.816;8.902;2024-02-14T08:24:40;20.15;;;12.25;;
22557;SDS011;11445;53.816;8.902;2024-02-14T08:27:08;19.40;;;12.77;;
22557;SDS011;11445;53.816;8.902;2024-02-14T08:29:35;19.95;;;12.43;;
22557;SDS011;11445;53.816;8.902;2024-02-14T08:32:02;17.48;;;12.65;;
22557;SDS011;11445;53.816;8.902;2024-02-14T08:34:30;20.42;;;13.75;;
22557;SDS011;11445;53.816;8.902;2024-02-14T08:36:56;18.98;;;12.55;;
22557;SDS011;11445;53.816;8.902;2024-02-14T08:39:23;20.80;;;13.20;;
22557;SDS011;11445;53.816;8.902;2024-02-14T08:41:51;20.17;;;13.20;;
22557;SDS011;11445;53.816;8.902;2024-02-14T08:44:19;23.90;;;14.00;;
22557;SDS011;11445;53.816;8.902;2024-02-14T08:46:46;21.88;;;13.57;;
22557;SDS011;11445;53.816;8.902;2024-02-14T08:49:14;25.42;;;14.02;;
22557;SDS011;11445;53.816;8.902;2024-02-14T08:51:41;21.55;;;13.95;;
22557;SDS011;11445;53.816;8.902;2024-02-14T08:54:09;20.85;;;13.65;;
22557;SDS011;11445;53.816;8.902;2024-02-14T08:56:36;20.80;;;13.20;;
22557;SDS011;11445;53.816;8.902;2024-02-14T08:59:03;20.67;;;13.48;;
22557;SDS011;11445;53.816;8.902;2024-02-14T09:01:33;20.48;;;12.88;;
22557;SDS011;11445;53.816;8.902;2024-02-14T09:04:01;26.50;;;13.50;;
22557;SDS011;11445;53.816;8.902;2024-02-14T09:06:28;25.58;;;14.30;;
22557;SDS011;11445;53.816;8.902;2024-02-14T09:08:54;25.02;;;12.93;;
22557;SDS011;11445;53.816;8.902;2024-02-14T09:11:22;28.75;;;14.23;;
22557;SDS011;11445;53.816;8.902;2024-02-14T09:13:50;23.58;;;13.63;;
22557;SDS011;11445;53.816;8.902;2024-02-14T09:16:21;24.35;;;12.85;;
22557;SDS011;11445;53.816;8.902;2024-02-14T09:18:49;21.80;;;12.73;;
22557;SDS011;11445;53.816;8.902;2024-02-14T09:21:16;21.23;;;12.65;;
22557;SDS011;11445;53.816;8.902;2024-02-14T09:23:46;19.48;;;12.82;;
22557;SDS011;11445;53.816;8.902;2024-02-14T09:26:13;22.80;;;12.63;;
22557;SDS011;11445;53.816;8.902;2024-02-14T09:28:41;18.75;;;11.38;;
22557;SDS011;11445;53.816;8.902;2024-02-14T09:31:08;20.25;;;11.93;;
22557;SDS011;11445;53.816;8.902;2024-02-14T09:33:36;19.10;;;11.32;;
22557;SDS011;11445;53.816;8.902;2024-02-14T09:36:04;20.40;;;11.35;;
22557;SDS011;11445;53.816;8.902;2024-02-14T09:38:32;21.35;;;11.18;;
22557;SDS011;11445;53.816;8.902;2024-02-14T09:41:01;20.00;;;10.40;;
22557;SDS011;11445;53.816;8.902;2024-02-14T09:43:34;18.00;;;9.85;;
22557;SDS011;11445;53.816;8.902;2024-02-14T09:46:05;19.13;;;10.15;;
22557;SDS011;11445;53.816;8.902;2024-02-14T09:48:33;19.85;;;10.10;;
22557;SDS011;11445;53.816;8.902;2024-02-14T09:51:03;17.23;;;9.55;;
22557;SDS011;11445;53.816;8.902;2024-02-14T09:53:31;18.02;;;10.13;;
22557;SDS011;11445;53.816;8.902;2024-02-14T09:55:59;16.15;;;9.05;;
22557;SDS011;11445;53.816;8.902;2024-02-14T09:58:27;14.82;;;8.38;;
22557;SDS011;11445;53.816;8.902;2024-02-14T10:00:55;7.95;;;5.65;;
22557;SDS011;11445;53.816;8.902;2024-02-14T10:03:22;13.98;;;7.55;;
22557;SDS011;11445;53.816;8.902;2024-02-14T10:05:49;11.90;;;7.20;;
22557;SDS011;11445;53.816;8.902;2024-02-14T10:08:18;12.18;;;6.70;;
22557;SDS011;11445;53.816;8.902;2024-02-14T10:10:45;12.27;;;7.05;;
22557;SDS011;11445;53.816;8.902;2024-02-14T10:13:12;9.30;;;6.35;;
22557;SDS011;11445;53.816;8.902;2024-02-14T10:15:41;10.60;;;5.47;;
22557;SDS011;11445;53.816;8.902;2024-02-14T10:18:08;9.27;;;5.72;;
22557;SDS011;11445;53.816;8.902;2024-02-14T10:20:36;9.43;;;6.03;;
22557;SDS011;11445;53.816;8.902;2024-02-14T10:23:08;10.82;;;5.75;;
22557;SDS011;11445;53.816;8.902;2024-02-14T10:25:38;8.85;;;4.97;;
22557;SDS011;11445;53.816;8.902;2024-02-14T10:28:05;7.90;;;4.78;;
22557;SDS011;11445;53.816;8.902;2024-02-14T10:30:33;10.02;;;4.57;;
22557;SDS011;11445;53.816;8.902;2024-02-14T10:33:01;6.95;;;4.47;;
22557;SDS011;11445;53.816;8.902;2024-02-14T10:35:30;7.28;;;4.43;;
22557;SDS011;11445;53.816;8.902;2024-02-14T10:37:57;10.15;;;5.13;;
22557;SDS011;11445;53.816;8.902;2024-02-14T10:40:27;8.27;;;4.97;;
22557;SDS011;11445;53.816;8.902;2024-02-14T10:42:55;8.48;;;4.68;;
22557;SDS011;11445;53.816;8.902;2024-02-14T10:45:23;7.72;;;5.20;;
22557;SDS011;11445;53.816;8.902;2024-02-14T10:47:51;7.07;;;5.00;;
22557;SDS011;11445;53.816;8.902;2024-02-14T10:50:20;6.28;;;4.65;;
22557;SDS011;11445;53.816;8.902;2024-02-14T10:52:48;6.40;;;4.40;;
22557;SDS011;11445;53.816;8.902;2024-02-14T10:55:16;7.80;;;4.75;;
22557;SDS011;11445;53.816;8.902;2024-02-14T10:57:43;8.38;;;5.05;;
22557;SDS011;11445;53.816;8.902;2024-02-14T11:00:14;9.50;;;5.30;;
22557;SDS011;11445;53.816;8.902;2024-02-14T11:02:43;10.15;;;5.43;;
22557;SDS011;11445;53.816;8.902;2024-02-14T11:05:12;12.55;;;5.95;;
22557;SDS011;11445;53.816;8.902;2024-02-14T11:07:43;10.27;;;5.75;;
22557;SDS011;11445;53.816;8.902;2024-02-14T11:10:13;12.38;;;5.97;;
22557;SDS011;11445;53.816;8.902;2024-02-14T11:12:40;9.13;;;5.90;;
22557;SDS011;11445;53.816;8.902;2024-02-14T11:15:11;9.02;;;6.10;;
22557;SDS011;11445;53.816;8.902;2024-02-14T11:17:42;19.13;;;7.30;;
22557;SDS011;11445;53.816;8.902;2024-02-14T11:20:16;11.13;;;6.30;;
22557;SDS011;11445;53.816;8.902;2024-02-14T11:22:53;14.88;;;7.35;;
22557;SDS011;11445;53.816;8.902;2024-02-14T11:25:28;13.63;;;6.97;;
22557;SDS011;11445;53.816;8.902;2024-02-14T11:27:59;15.52;;;7.20;;
22557;SDS011;11445;53.816;8.902;2024-02-14T11:30:33;17.42;;;7.50;;
22557;SDS011;11445;53.816;8.902;2024-02-14T11:33:12;17.52;;;6.93;;
22557;SDS011;11445;53.816;8.902;2024-02-14T11:35:44;18.23;;;7.30;;
22557;SDS011;11445;53.816;8.902;2024-02-14T11:38:12;20.30;;;7.35;;
22557;SDS011;11445;53.816;8.902;2024-02-14T11:40:40;16.65;;;6.95;;
22557;SDS011;11445;53.816;8.902;2024-02-14T11:43:10;15.95;;;6.75;;
22557;SDS011;11445;53.816;8.902;2024-02-14T11:45:40;12.52;;;6.95;;
22557;SDS011;11445;53.816;8.902;2024-02-14T11:48:08;11.95;;;6.82;;
22557;SDS011;11445;53.816;8.902;2024-02-14T11:50:38;11.98;;;5.90;;
22557;SDS011;11445;53.816;8.902;2024-02-14T11:53:06;11.45;;;6.70;;
22557;SDS011;11445;53.816;8.902;2024-02-14T11:55:35;15.65;;;6.63;;
22557;SDS011;11445;53.816;8.902;2024-02-14T11:58:03;10.50;;;5.80;;
22557;SDS011;11445;53.816;8.902;2024-02-14T12:00:33;13.15;;;6.55;;
22557;SDS011;11445;53.816;8.902;2024-02-14T12:03:05;14.55;;;6.93;;
22557;SDS011;11445;53.816;8.902;2024-02-14T12:05:33;9.50;;;6.35;;
22557;SDS011;11445;53.816;8.902;2024-02-14T12:08:01;13.95;;;6.90;;
22557;SDS011;11445;53.816;8.902;2024-02-14T12:10:28;10.90;;;6.20;;
22557;SDS011;11445;53.816;8.902;2024-02-14T12:12:57;11.32;;;6.03;;
22557;SDS011;11445;53.816;8.902;2024-02-14T12:15:25;10.98;;;5.68;;
22557;SDS011;11445;53.816;8.902;2024-02-14T12:17:52;12.77;;;5.63;;
22557;SDS011;11445;53.816;8.902;2024-02-14T12:20:23;11.95;;;6.32;;
22557;SDS011;11445;53.816;8.902;2024-02-14T12:22:50;9.65;;;5.22;;
22557;SDS011;11445;53.816;8.902;2024-02-14T12:25:16;15.95;;;6.43;;
22557;SDS011;11445;53.816;8.902;2024-02-14T12:27:49;13.60;;;6.72;;
22557;SDS011;11445;53.816;8.902;2024-02-14T12:30:16;13.07;;;6.88;;
22557;SDS011;11445;53.816;8.902;2024-02-14T12:32:44;12.07;;;6.82;;
22557;SDS011;11445;53.816;8.902;2024-02-14T12:35:11;14.20;;;7.68;;
22557;SDS011;11445;53.816;8.902;2024-02-14T12:37:39;18.95;;;9.07;;
22557;SDS011;11445;53.816;8.902;2024-02-14T12:40:07;17.88;;;8.88;;
22557;SDS011;11445;53.816;8.902;2024-02-14T12:42:35;17.75;;;8.95;;
22557;SDS011;11445;53.816;8.902;2024-02-14T12:45:02;23.20;;;8.82;;
22557;SDS011;11445;53.816;8.902;2024-02-14T12:47:29;20.85;;;10.02;;
22557;SDS011;11445;53.816;8.902;2024-02-14T12:49:59;23.17;;;10.57;;
22557;SDS011;11445;53.816;8.902;2024-02-14T12:52:26;30.15;;;10.10;;
22557;SDS011;11445;53.816;8.902;2024-02-14T12:54:54;22.98;;;10.13;;
22557;SDS011;11445;53.816;8.902;2024-02-14T12:57:21;22.20;;;9.88;;
22557;SDS011;11445;53.816;8.902;2024-02-14T12:59:48;23.27;;;9.50;;
22557;SDS011;11445;53.816;8.902;2024-02-14T13:02:15;22.67;;;10.57;;
22557;SDS011;11445;53.816;8.902;2024-02-14T13:04:42;29.65;;;10.88;;
22557;SDS011;11445;53.816;8.902;2024-02-14T13:07:09;33.45;;;10.23;;
22557;SDS011;11445;53.816;8.902;2024-02-14T13:09:36;27.58;;;10.25;;
22557;SDS011;11445;53.816;8.902;2024-02-14T13:12:05;21.45;;;10.43;;
22557;SDS011;11445;53.816;8.902;2024-02-14T13:14:34;24.27;;;10.35;;
22557;SDS011;11445;53.816;8.902;2024-02-14T13:17:01;29.35;;;10.50;;
22557;SDS011;11445;53.816;8.902;2024-02-14T13:19:29;24.52;;;10.25;;
22557;SDS011;11445;53.816;8.902;2024-02-14T13:21:56;23.20;;;9.13;;
22557;SDS011;11445;53.816;8.902;2024-02-14T13:24:23;19.67;;;8.77;;
22557;SDS011;11445;53.816;8.902;2024-02-14T13:26:50;20.30;;;8.52;;
22557;SDS011;11445;53.816;8.902;2024-02-14T13:29:18;20.13;;;8.65;;
22557;SDS011;11445;53.816;8.902;2024-02-14T13:31:45;15.95;;;7.93;;
22557;SDS011;11445;53.816;8.902;2024-02-14T13:34:12;20.20;;;8.60;;
22557;SDS011;11445;53.816;8.902;2024-02-14T13:36:40;15.95;;;7.75;;
22557;SDS011;11445;53.816;8.902;2024-02-14T13:39:07;13.95;;;7.03;;
22557;SDS011;11445;53.816;8.902;2024-02-14T13:41:33;8.70;;;5.38;;
22557;SDS011;11445;53.816;8.902;2024-02-14T13:44:02;9.70;;;5.07;;
22557;SDS011;11445;53.816;8.902;2024-02-14T13:46:31;9.65;;;5.18;;
22557;SDS011;11445;53.816;8.902;2024-02-14T13:48:57;7.05;;;4.45;;
22557;SDS011;11445;53.816;8.902;2024-02-14T13:51:24;10.35;;;4.93;;
22557;SDS011;11445;53.816;8.902;2024-02-14T13:53:52;9.38;;;4.35;;
22557;SDS011;11445;53.816;8.902;2024-02-14T13:56:18;6.80;;;4.05;;
22557;SDS011;11445;53.816;8.902;2024-02-14T13:58:47;6.68;;;4.13;;
22557;SDS011;11445;53.816;8.902;2024-02-14T14:01:15;10.52;;;4.88;;
22557;SDS011;11445;53.816;8.902;2024-02-14T14:03:43;7.75;;;4.75;;
22557;SDS011;11445;53.816;8.902;2024-02-14T14:06:10;11.63;;;4.90;;
22557;SDS011;11445;53.816;8.902;2024-02-14T14:08:37;6.60;;;4.80;;
22557;SDS011;11445;53.816;8.902;2024-02-14T14:11:05;11.25;;;6.05;;
22557;SDS011;11445;53.816;8.902;2024-02-14T14:13:33;10.82;;;5.25;;
22557;SDS011;11445;53.816;8.902;2024-02-14T14:16:00;6.65;;;4.25;;
22557;SDS011;11445;53.816;8.902;2024-02-14T14:18:26;8.85;;;4.72;;
22557;SDS011;11445;53.816;8.902;2024-02-14T14:20:54;8.82;;;4.47;;
22557;SDS011;11445;53.816;8.902;2024-02-14T14:23:21;8.55;;;4.60;;
22557;SDS011;11445;53.816;8.902;2024-02-14T14:25:48;6.30;;;3.97;;
22557;SDS011;11445;53.816;8.902;2024-02-14T14:28:15;7.18;;;4.10;;
22557;SDS011;11445;53.816;8.902;2024-02-14T14:30:42;5.85;;;3.88;;
22557;SDS011;11445;53.816;8.902;2024-02-14T14:33:09;9.10;;;4.43;;